SBOSBO RAK / GMMX
Speedbird OnlineSpeedbird Online RAK / GMMX

Menara Airport
07:21 18°C

Location Marrakech, Morocco
Latitude: 31.606899261499997
Longitude: -8.03629970551
Web Wikipedia
Altitude 471 Meter / 1545 Feet
Distance 2,311 KM / 1,436 Miles
from London.
Time Zone UTC +1 hours (Africa/Casablanca)
Codes IATA: RAK
ICAO: GMMX
Currency £1 equals MAD 12.38
Runways
RunwayLength (m)Surface
103100Asphalt
283100Asphalt
Radio
TypeDescriptionFrequency
APPMARRAKECH APP119.7
TWRMARRAKECH TWR118.7
Live ATC
METAR GMMX 060600Z 25003KT 8000 NSC 18/11 Q1018 NOSIG
TAF TAF GMMX 060500Z 0606/0712 04006KT 8000 NSC TEMPO 0616/0620 32016KT
Weather As Of 06 Oct 2022 07:17
Description Clear sky
Wind 6 km/h from West (250°)
Cloud Cover 4%
Precipitation Rain: none, Snow: none
Sunrise 07:28
Sunset 19:11
Lounges Oasis Lounge - TEMPORARILY CLOSED, Terminal 1
Pearl Lounge , Terminal 1
Rotations During the last 90 days there were
61 flights from LGW
60 flights to LGW


© 2017-2022 Speedbird Online